Time;durP1;ratioP1;P1;durP2;ratioP2;P2;SDS_P1;SDS_P2;PMS_P1;PMS_P2;Temp;Humidity;BMP_temperature;BMP_pressure;BME280_temperature;BME280_humidity;BME280_pressure;Samples;Min_cycle;Max_cycle;Signal;HPM_P1;HPM_P2
2022/12/13 00:02:01;;;;;;;27.20;15.73;;;-2.60;99.90;;;;;;4981704;28;20283;-78
2022/12/13 00:04:28;;;;;;;23.03;15.33;;;-2.60;99.90;;;;;;4975171;28;20232;-78
2022/12/13 00:06:55;;;;;;;27.63;16.43;;;-2.60;99.90;;;;;;4975305;28;20287;-79
2022/12/13 00:09:22;;;;;;;28.00;16.17;;;-2.70;99.90;;;;;;4976437;28;20320;-79
2022/12/13 00:11:51;;;;;;;30.07;16.57;;;-2.70;99.90;;;;;;4994859;28;20231;-75
2022/12/13 00:14:18;;;;;;;29.43;16.77;;;-2.70;99.90;;;;;;4978862;28;20287;-79
2022/12/13 00:16:46;;;;;;;33.03;17.27;;;-2.60;99.90;;;;;;4975153;28;20288;-78
2022/12/13 00:19:15;;;;;;;31.90;18.13;;;-2.60;99.90;;;;;;4974871;28;20220;-77
2022/12/13 00:21:42;;;;;;;33.50;18.00;;;-2.50;99.90;;;;;;4986468;28;20219;-77
2022/12/13 00:24:09;;;;;;;29.93;17.40;;;-2.40;99.90;;;;;;4994469;28;20231;-77
2022/12/13 00:26:36;;;;;;;28.47;18.30;;;-2.30;99.90;;;;;;4994675;28;20651;-79
2022/12/13 00:29:05;;;;;;;31.90;18.37;;;-2.30;99.90;;;;;;4983474;28;20477;-77
2022/12/13 00:31:33;;;;;;;28.90;17.67;;;-2.20;99.90;;;;;;4975326;28;20291;-76
2022/12/13 00:34:00;;;;;;;36.97;18.37;;;-2.10;99.90;;;;;;4979020;28;20338;-78
2022/12/13 00:36:28;;;;;;;33.73;18.73;;;-2.10;99.90;;;;;;4994142;28;20228;-78
2022/12/13 00:39:01;;;;;;;31.43;17.93;;;-2.00;99.90;;;;;;4994540;28;20230;-78
2022/12/13 00:41:30;;;;;;;31.97;17.03;;;-2.00;99.90;;;;;;4988870;28;20746;-78
2022/12/13 00:43:58;;;;;;;27.80;17.43;;;-2.00;99.90;;;;;;4974232;28;20217;-78
2022/12/13 00:46:25;;;;;;;27.60;17.77;;;-2.10;99.90;;;;;;4974888;28;20517;-79
2022/12/13 00:48:54;;;;;;;28.37;16.80;;;-2.10;99.90;;;;;;4975051;28;20275;-78
2022/12/13 00:51:21;;;;;;;28.57;16.27;;;-2.20;99.90;;;;;;4974784;28;20654;-80
2022/12/13 00:53:50;;;;;;;26.43;15.80;;;-2.20;99.90;;;;;;4992635;28;20230;-79
2022/12/13 00:56:20;;;;;;;29.10;15.77;;;-2.20;99.90;;;;;;4992601;28;20299;-80
2022/12/13 00:58:48;;;;;;;29.00;16.53;;;-2.20;99.90;;;;;;4993771;28;20589;-80
2022/12/13 01:01:17;;;;;;;27.33;15.93;;;-2.20;99.90;;;;;;4991098;28;20207;-79
2022/12/13 01:03:44;;;;;;;30.17;16.73;;;-2.30;99.90;;;;;;4994109;28;20220;-81
2022/12/13 01:06:12;;;;;;;30.23;16.23;;;-2.30;99.90;;;;;;4993931;28;20238;-78
2022/12/13 01:08:40;;;;;;;31.13;16.93;;;-2.30;99.90;;;;;;4994004;28;20279;-78
2022/12/13 01:11:09;;;;;;;25.57;16.37;;;-2.40;99.90;;;;;;4987689;28;20278;-78
2022/12/13 01:13:36;;;;;;;28.73;16.23;;;-2.40;99.90;;;;;;4974384;28;20233;-78
2022/12/13 01:16:05;;;;;;;27.60;16.37;;;-2.40;99.90;;;;;;4973922;28;20205;-80
2022/12/13 01:18:32;;;;;;;31.57;15.37;;;-2.40;99.90;;;;;;4973937;28;20283;-78
2022/12/13 01:21:00;;;;;;;29.83;16.40;;;-2.40;99.90;;;;;;4974284;28;20212;-79
2022/12/13 01:23:28;;;;;;;26.23;15.37;;;-2.40;99.90;;;;;;4974204;28;20221;-79
2022/12/13 01:25:56;;;;;;;26.07;15.47;;;-2.40;99.90;;;;;;4973704;28;20290;-77
2022/12/13 01:28:24;;;;;;;25.33;15.63;;;-2.40;99.90;;;;;;4973996;28;20593;-79
2022/12/13 01:30:55;;;;;;;27.83;16.30;;;-2.40;99.90;;;;;;4973793;28;20311;-78
2022/12/13 01:33:22;;;;;;;24.53;14.83;;;-2.50;99.90;;;;;;4974746;28;20235;-78
2022/12/13 01:35:49;;;;;;;21.20;14.23;;;-2.50;99.90;;;;;;4973653;28;20328;-79
2022/12/13 01:38:16;;;;;;;27.13;15.47;;;-2.50;99.90;;;;;;4985297;28;20208;-79
2022/12/13 01:40:45;;;;;;;23.50;15.10;;;-2.60;99.90;;;;;;4992917;28;20504;-79
2022/12/13 01:43:13;;;;;;;27.10;15.17;;;-2.60;99.90;;;;;;4977600;28;20224;-79
2022/12/13 01:45:42;;;;;;;25.57;15.13;;;-2.70;99.90;;;;;;4973781;28;20201;-79
2022/12/13 01:48:13;;;;;;;28.10;16.17;;;-2.70;99.90;;;;;;4973481;28;20783;-79
2022/12/13 01:50:42;;;;;;;24.10;13.63;;;-2.70;99.90;;;;;;4976329;28;20204;-79
2022/12/13 01:53:14;;;;;;;27.07;15.33;;;-2.70;99.90;;;;;;4992928;28;20196;-79
2022/12/13 01:55:44;;;;;;;26.37;15.37;;;-2.70;99.90;;;;;;4992702;28;20290;-79
2022/12/13 01:58:12;;;;;;;29.17;15.80;;;-2.70;99.90;;;;;;4993215;28;20254;-79
2022/12/13 02:00:39;;;;;;;23.97;14.70;;;-2.70;99.90;;;;;;4991182;28;20219;-79
2022/12/13 02:03:07;;;;;;;21.17;14.47;;;-2.70;99.90;;;;;;4993289;28;20233;-79
2022/12/13 02:05:38;;;;;;;26.20;15.10;;;-2.80;99.90;;;;;;4991536;28;20240;-78
2022/12/13 02:08:07;;;;;;;23.83;14.80;;;-2.80;99.90;;;;;;4992605;28;20588;-80
2022/12/13 02:10:34;;;;;;;29.93;15.60;;;-2.80;99.90;;;;;;4976615;28;20299;-80
2022/12/13 02:13:01;;;;;;;24.20;14.83;;;-2.90;99.90;;;;;;4973108;28;20196;-79
2022/12/13 02:15:36;;;;;;;25.80;15.27;;;-2.90;99.90;;;;;;4972830;28;20210;-79
2022/12/13 02:18:22;;;;;;;26.20;14.40;;;-3.00;99.90;;;;;;4972918;28;20206;-79
2022/12/13 02:21:02;;;;;;;24.57;13.70;;;-3.00;99.90;;;;;;4992008;28;20676;-79
2022/12/13 02:24:07;;;;;;;26.37;15.10;;;-3.10;99.90;;;;;;4991534;28;20239;-80
2022/12/13 02:27:04;;;;;;;27.73;15.23;;;-3.00;99.90;;;;;;4992866;28;20278;-80
2022/12/13 02:30:09;;;;;;;24.00;13.57;;;-3.10;99.90;;;;;;4985785;28;20338;-80
2022/12/13 02:32:43;;;;;;;23.53;13.77;;;-3.20;99.90;;;;;;4992569;28;20845;-80
2022/12/13 02:35:21;;;;;;;28.87;15.50;;;-3.20;99.90;;;;;;4986165;28;20314;-80
2022/12/13 02:37:55;;;;;;;31.40;16.70;;;-3.20;99.90;;;;;;4972990;28;20628;-80
2022/12/13 02:40:26;;;;;;;24.13;14.40;;;-3.20;99.90;;;;;;4974445;28;20593;-79
2022/12/13 02:43:00;;;;;;;27.43;14.87;;;-3.30;99.90;;;;;;4973919;28;20218;-81
2022/12/13 02:45:31;;;;;;;26.37;15.83;;;-3.30;99.90;;;;;;4973207;28;20287;-81
2022/12/13 02:48:03;;;;;;;26.43;15.17;;;-3.30;99.90;;;;;;4972812;28;20209;-80
2022/12/13 02:50:32;;;;;;;25.83;14.17;;;-3.30;99.90;;;;;;4972953;28;20701;-81
2022/12/13 02:53:01;;;;;;;24.80;14.60;;;-3.30;99.90;;;;;;4973380;28;20223;-81
2022/12/13 02:55:28;;;;;;;21.80;13.50;;;-3.30;99.90;;;;;;4972595;28;20231;-81
2022/12/13 02:57:55;;;;;;;27.33;14.63;;;-3.30;99.90;;;;;;4973194;28;20211;-81
2022/12/13 03:00:31;;;;;;;22.90;14.63;;;-3.30;99.90;;;;;;4985802;28;20223;-82
2022/12/13 03:03:11;;;;;;;25.07;14.37;;;-3.40;99.90;;;;;;4992528;28;20468;-81
2022/12/13 03:08:45;;;;;;;26.37;15.10;;;-3.40;99.90;;;;;;4984162;28;20208;-81
2022/12/13 03:11:16;;;;;;;27.20;14.40;;;-3.40;99.90;;;;;;4972542;28;20201;-81
2022/12/13 03:13:48;;;;;;;22.27;13.30;;;-3.50;99.90;;;;;;4980158;28;20207;-81
2022/12/13 03:16:26;;;;;;;25.63;13.47;;;-3.50;99.90;;;;;;4991700;28;20664;-80
2022/12/13 03:18:57;;;;;;;25.50;13.77;;;-3.50;99.90;;;;;;4970577;28;20200;-80
2022/12/13 03:21:25;;;;;;;25.40;14.20;;;-3.50;99.90;;;;;;4973353;28;20220;-80
2022/12/13 03:23:52;;;;;;;23.17;13.70;;;-3.50;99.90;;;;;;4972624;28;20724;-81
2022/12/13 03:26:22;;;;;;;26.43;15.23;;;-3.60;99.90;;;;;;4972592;28;20201;-81
2022/12/13 03:28:49;;;;;;;24.37;13.47;;;-3.60;99.90;;;;;;4972934;28;20292;-81
2022/12/13 03:31:16;;;;;;;26.50;14.87;;;-3.60;99.90;;;;;;4979856;28;20648;-81
2022/12/13 03:33:43;;;;;;;23.97;14.47;;;-3.70;99.90;;;;;;4990131;28;20263;-82
2022/12/13 03:36:12;;;;;;;23.63;14.13;;;-3.70;99.90;;;;;;4994643;28;20283;-82
2022/12/13 03:38:40;;;;;;;22.90;13.47;;;-3.70;99.90;;;;;;4995863;28;20506;-82
2022/12/13 03:41:09;;;;;;;28.97;15.30;;;-3.70;99.90;;;;;;4990406;28;20224;-82
2022/12/13 03:43:37;;;;;;;26.67;14.33;;;-3.70;99.90;;;;;;4975853;28;20224;-79
2022/12/13 03:46:04;;;;;;;27.03;13.97;;;-3.80;99.90;;;;;;4987090;28;20214;-80
2022/12/13 03:48:31;;;;;;;28.23;14.60;;;-3.80;99.90;;;;;;4997656;28;20231;-80
2022/12/13 03:50:58;;;;;;;22.10;13.73;;;-3.80;99.90;;;;;;4997660;28;20207;-81
2022/12/13 03:53:27;;;;;;;24.47;14.03;;;-3.80;99.90;;;;;;4993400;28;20609;-81
2022/12/13 03:55:54;;;;;;;25.40;14.20;;;-3.90;99.90;;;;;;4997304;28;20335;-81
2022/12/13 03:58:21;;;;;;;26.60;15.33;;;-3.80;99.90;;;;;;4996926;28;20207;-81
2022/12/13 04:00:48;;;;;;;24.13;13.97;;;-3.90;99.90;;;;;;4996027;28;20246;-80
2022/12/13 04:03:15;;;;;;;22.20;12.97;;;-3.80;99.90;;;;;;4996275;28;20243;-81
2022/12/13 04:05:43;;;;;;;19.00;12.53;;;-3.80;99.90;;;;;;4994892;28;20211;-81
2022/12/13 04:08:09;;;;;;;20.07;13.23;;;-3.90;99.90;;;;;;4996495;28;20231;-81
2022/12/13 04:10:38;;;;;;;24.23;14.47;;;-3.90;99.90;;;;;;4995131;28;20295;-81
2022/12/13 04:15:49;;;;;;;25.37;14.37;;;-3.90;99.90;;;;;;4993545;28;20282;-81
2022/12/13 04:18:16;;;;;;;27.93;15.17;;;-3.90;99.90;;;;;;4995609;28;20337;-81
2022/12/13 04:20:44;;;;;;;26.63;14.43;;;-3.90;99.90;;;;;;4995524;28;20234;-81
2022/12/13 04:23:10;;;;;;;24.73;14.83;;;-3.90;99.90;;;;;;4990323;28;20233;-81
2022/12/13 04:25:39;;;;;;;23.50;14.37;;;-3.90;99.90;;;;;;4975476;28;20299;-82
2022/12/13 04:28:07;;;;;;;24.80;13.67;;;-3.90;99.90;;;;;;4976371;28;20204;-81
2022/12/13 04:30:34;;;;;;;25.03;14.67;;;-3.90;99.90;;;;;;4975787;28;20712;-82
2022/12/13 04:33:01;;;;;;;26.13;14.47;;;-3.90;99.90;;;;;;4975757;28;20211;-82
2022/12/13 04:35:28;;;;;;;27.03;14.90;;;-3.90;99.90;;;;;;4974784;28;20239;-82
2022/12/13 04:37:55;;;;;;;24.97;14.50;;;-3.90;99.90;;;;;;4976333;28;20211;-82
2022/12/13 04:40:23;;;;;;;23.03;13.97;;;-3.90;99.90;;;;;;4995209;28;20208;-82
2022/12/13 04:42:51;;;;;;;24.40;14.17;;;-4.00;99.90;;;;;;4993968;28;20284;-80
2022/12/13 04:45:18;;;;;;;25.97;14.83;;;-4.00;99.90;;;;;;4982164;28;20205;-81
2022/12/13 04:47:45;;;;;;;24.20;13.40;;;-4.00;99.90;;;;;;4975851;28;20204;-81
2022/12/13 04:50:12;;;;;;;21.30;14.00;;;-4.00;99.90;;;;;;4974934;28;20231;-82
2022/12/13 04:52:39;;;;;;;24.20;13.87;;;-3.90;99.90;;;;;;4976724;28;20232;-81
2022/12/13 04:55:08;;;;;;;24.80;14.43;;;-4.00;99.90;;;;;;4976307;28;20224;-82
2022/12/13 04:57:35;;;;;;;23.40;14.03;;;-4.00;99.90;;;;;;4975515;28;20213;-82
2022/12/13 05:00:04;;;;;;;21.80;13.47;;;-4.00;99.90;;;;;;4976539;28;20311;-81
2022/12/13 05:02:31;;;;;;;23.27;13.77;;;-4.00;99.90;;;;;;4975848;28;20601;-82
2022/12/13 05:04:58;;;;;;;22.90;12.90;;;-4.00;99.90;;;;;;4976159;28;20201;-82
2022/12/13 05:07:26;;;;;;;23.53;13.70;;;-4.00;99.90;;;;;;4973550;28;20267;-82
2022/12/13 05:09:53;;;;;;;25.00;13.87;;;-4.00;99.90;;;;;;4976321;28;20201;-82
2022/12/13 05:12:20;;;;;;;29.03;14.20;;;-4.00;99.90;;;;;;4982608;28;20679;-82
2022/12/13 05:14:48;;;;;;;27.43;15.13;;;-4.00;99.90;;;;;;4995825;28;20357;-84
2022/12/13 05:17:17;;;;;;;26.50;14.17;;;-4.00;99.90;;;;;;4978369;28;20235;-82
2022/12/13 05:19:43;;;;;;;26.77;15.00;;;-4.00;99.90;;;;;;4976080;28;20593;-82
2022/12/13 05:22:14;;;;;;;29.10;16.37;;;-4.00;99.90;;;;;;4974704;28;20299;-82
2022/12/13 05:24:43;;;;;;;20.57;14.07;;;-4.00;99.90;;;;;;4975757;28;20667;-82
2022/12/13 05:27:10;;;;;;;22.47;13.77;;;-4.00;99.90;;;;;;4975815;28;20201;-82
2022/12/13 05:29:37;;;;;;;24.33;13.77;;;-4.10;99.90;;;;;;4993904;28;20207;-82
2022/12/13 05:32:05;;;;;;;23.23;13.57;;;-4.10;99.90;;;;;;4994920;28;20208;-81
2022/12/13 05:34:33;;;;;;;27.47;14.57;;;-4.10;99.90;;;;;;4979461;28;21069;-81
2022/12/13 05:37:01;;;;;;;25.63;14.43;;;-4.10;99.90;;;;;;4975077;28;20236;-81
2022/12/13 05:39:28;;;;;;;22.33;14.00;;;-4.00;99.90;;;;;;4975426;28;20288;-81
2022/12/13 05:41:55;;;;;;;26.57;16.47;;;-4.10;99.90;;;;;;4975236;28;20506;-81
2022/12/13 05:44:23;;;;;;;27.20;15.67;;;-4.10;99.90;;;;;;4958626;28;20216;-81
2022/12/13 05:46:50;;;;;;;22.43;14.23;;;-4.10;99.90;;;;;;4954704;28;20296;-81
2022/12/13 05:49:17;;;;;;;29.73;16.63;;;-4.10;99.90;;;;;;4954841;28;20625;-82
2022/12/13 05:51:45;;;;;;;24.23;15.07;;;-4.10;99.90;;;;;;4960640;28;20200;-80
2022/12/13 05:54:12;;;;;;;23.57;14.73;;;-4.10;99.90;;;;;;4974317;28;20304;-81
2022/12/13 05:56:39;;;;;;;25.87;15.30;;;-4.10;99.90;;;;;;4974355;28;20207;-81
2022/12/13 05:59:06;;;;;;;26.70;16.47;;;-4.10;99.90;;;;;;4974087;28;20207;-81
2022/12/13 06:01:33;;;;;;;29.30;16.03;;;-4.10;99.90;;;;;;4972021;28;20307;-80
2022/12/13 06:03:59;;;;;;;28.40;16.37;;;-4.10;99.90;;;;;;4973979;28;20283;-80
2022/12/13 06:06:26;;;;;;;26.27;14.43;;;-4.10;99.90;;;;;;4974188;28;20488;-81
2022/12/13 06:08:55;;;;;;;27.80;15.70;;;-4.10;99.90;;;;;;4974542;28;20295;-80
2022/12/13 06:11:22;;;;;;;25.33;14.67;;;-4.10;99.90;;;;;;4974333;28;20303;-81
2022/12/13 06:13:52;;;;;;;25.40;16.03;;;-4.10;99.90;;;;;;4975349;28;20228;-82
2022/12/13 06:16:19;;;;;;;25.90;14.73;;;-4.10;99.90;;;;;;4975244;28;20204;-81
2022/12/13 06:18:46;;;;;;;30.00;16.17;;;-4.10;99.90;;;;;;4975037;28;20208;-82
2022/12/13 06:21:13;;;;;;;30.17;16.47;;;-4.10;99.90;;;;;;4973959;28;20324;-81
2022/12/13 06:23:41;;;;;;;28.50;17.17;;;-4.10;99.90;;;;;;4974268;28;20286;-81
2022/12/13 06:26:10;;;;;;;30.17;15.93;;;-4.10;99.90;;;;;;4974726;28;20478;-81
2022/12/13 06:28:36;;;;;;;29.43;15.53;;;-4.10;99.90;;;;;;4986811;28;20242;-80
2022/12/13 06:31:04;;;;;;;26.50;16.33;;;-4.10;99.90;;;;;;4994067;28;20200;-81
2022/12/13 06:33:34;;;;;;;28.17;15.30;;;-4.10;99.90;;;;;;4993627;28;20558;-81
2022/12/13 06:36:01;;;;;;;27.67;15.83;;;-4.10;99.90;;;;;;4982462;28;20244;-81
2022/12/13 06:38:28;;;;;;;34.50;17.63;;;-4.10;99.90;;;;;;4973928;28;20204;-83
2022/12/13 06:40:55;;;;;;;30.23;17.27;;;-4.10;99.90;;;;;;4974226;28;20307;-80
2022/12/13 06:43:23;;;;;;;30.77;18.07;;;-4.10;99.90;;;;;;4987489;28;20692;-81
2022/12/13 06:45:50;;;;;;;37.03;17.83;;;-4.10;99.90;;;;;;4993336;28;20445;-81
2022/12/13 06:48:17;;;;;;;32.13;17.00;;;-4.10;99.90;;;;;;4992190;28;20200;-81
2022/12/13 06:50:44;;;;;;;32.80;17.17;;;-4.00;99.90;;;;;;4956241;28;20675;-81
2022/12/13 06:53:11;;;;;;;29.47;17.53;;;-4.00;99.90;;;;;;4955223;28;20213;-82
2022/12/13 06:55:38;;;;;;;29.03;16.53;;;-4.00;99.90;;;;;;4965182;28;20640;-81
2022/12/13 06:58:05;;;;;;;32.23;18.17;;;-4.00;99.90;;;;;;4973832;28;20236;-81
2022/12/13 07:00:33;;;;;;;30.53;17.07;;;-4.00;99.90;;;;;;4974059;28;20564;-80
2022/12/13 07:03:00;;;;;;;32.13;18.40;;;-4.00;99.90;;;;;;4973722;28;20209;-81
2022/12/13 07:05:27;;;;;;;28.77;18.37;;;-4.00;99.90;;;;;;4974108;28;20204;-81
2022/12/13 07:07:54;;;;;;;31.37;18.47;;;-4.00;99.90;;;;;;4973870;28;20207;-80
2022/12/13 07:10:22;;;;;;;34.37;18.80;;;-4.00;99.90;;;;;;4984193;28;20208;-81
2022/12/13 07:12:49;;;;;;;33.97;18.63;;;-4.00;99.90;;;;;;4997271;28;20227;-81
2022/12/13 07:15:16;;;;;;;33.63;17.77;;;-4.00;99.90;;;;;;4989459;28;20307;-81
2022/12/13 07:17:44;;;;;;;30.83;17.70;;;-4.00;99.90;;;;;;4977659;28;20201;-81
2022/12/13 07:20:13;;;;;;;31.00;17.03;;;-4.00;99.90;;;;;;4977344;28;20247;-82
2022/12/13 07:22:41;;;;;;;30.57;17.83;;;-4.00;99.90;;;;;;4977342;28;20227;-82
2022/12/13 07:25:09;;;;;;;35.77;18.63;;;-4.00;99.90;;;;;;4977392;28;20562;-81
2022/12/13 07:27:35;;;;;;;28.30;17.00;;;-4.00;99.90;;;;;;4977767;28;20616;-81
2022/12/13 07:30:03;;;;;;;35.47;18.20;;;-4.00;99.90;;;;;;4978251;28;20223;-82
2022/12/13 07:32:30;;;;;;;33.43;18.20;;;-4.00;99.90;;;;;;4976904;28;20211;-82
2022/12/13 07:34:58;;;;;;;34.93;18.47;;;-4.00;99.90;;;;;;4980585;28;20323;-81
2022/12/13 07:37:25;;;;;;;30.23;17.90;;;-4.00;99.90;;;;;;4997554;28;20274;-82
2022/12/13 07:39:52;;;;;;;33.43;17.70;;;-4.00;99.90;;;;;;4997220;28;20263;-81
2022/12/13 07:42:19;;;;;;;27.17;15.93;;;-4.10;99.90;;;;;;4995654;28;20514;-82
2022/12/13 07:44:46;;;;;;;31.40;17.87;;;-4.10;99.90;;;;;;4996892;28;20675;-82
2022/12/13 07:47:12;;;;;;;32.83;17.50;;;-4.00;99.90;;;;;;4996915;28;20196;-82
2022/12/13 07:49:40;;;;;;;31.13;18.17;;;-4.00;99.90;;;;;;4992074;28;20662;-80
2022/12/13 07:52:11;;;;;;;37.10;18.57;;;-4.00;99.90;;;;;;4976785;28;20216;-81
2022/12/13 07:54:38;;;;;;;32.77;18.13;;;-4.00;99.90;;;;;;4977222;28;20832;-82
2022/12/13 07:57:05;;;;;;;29.27;17.80;;;-4.00;99.90;;;;;;4977544;28;20204;-81
2022/12/13 07:59:32;;;;;;;28.50;17.13;;;-4.00;99.90;;;;;;4989966;28;20208;-83
2022/12/13 08:01:59;;;;;;;31.67;18.73;;;-4.00;99.90;;;;;;4997188;28;20204;-82
2022/12/13 08:04:26;;;;;;;33.87;19.03;;;-4.00;99.90;;;;;;4995863;28;20231;-82
2022/12/13 08:06:53;;;;;;;32.43;18.93;;;-3.90;99.90;;;;;;4995863;28;20228;-82
2022/12/13 08:09:32;;;;;;;36.90;19.70;;;-3.90;99.90;;;;;;4987546;28;20203;-83
2022/12/13 08:11:58;;;;;;;33.87;18.83;;;-4.00;99.90;;;;;;4965959;28;20292;-82
2022/12/13 08:14:25;;;;;;;37.07;19.93;;;-3.90;99.90;;;;;;4967729;28;20295;-83
2022/12/13 08:16:53;;;;;;;32.63;19.03;;;-3.90;99.90;;;;;;4964127;28;20323;-82
2022/12/13 08:19:20;;;;;;;34.07;18.23;;;-3.90;99.90;;;;;;4980647;28;20209;-82
2022/12/13 08:21:47;;;;;;;35.13;19.17;;;-3.90;99.90;;;;;;4965597;28;20209;-81
2022/12/13 08:24:14;;;;;;;34.23;19.87;;;-3.90;99.90;;;;;;4963750;28;20231;-81
2022/12/13 08:26:42;;;;;;;33.07;18.70;;;-3.90;99.90;;;;;;4970171;28;20243;-81
2022/12/13 08:29:13;;;;;;;31.17;19.10;;;-3.90;99.90;;;;;;4956453;29;20323;-82
2022/12/13 08:31:40;;;;;;;35.10;19.67;;;-3.90;99.90;;;;;;4957258;29;20289;-81
2022/12/13 08:34:07;;;;;;;33.13;18.93;;;-3.80;99.90;;;;;;4960987;28;20240;-82
2022/12/13 08:36:34;;;;;;;39.30;20.23;;;-3.90;99.90;;;;;;4976429;28;20232;-81
2022/12/13 08:39:03;;;;;;;39.53;20.57;;;-3.80;99.90;;;;;;4972394;28;20204;-82
2022/12/13 08:41:30;;;;;;;36.40;20.37;;;-3.80;99.90;;;;;;4968493;28;20227;-82
2022/12/13 08:43:58;;;;;;;35.67;20.67;;;-3.80;99.90;;;;;;4965349;28;20204;-82
2022/12/13 08:46:25;;;;;;;33.83;20.00;;;-3.70;99.90;;;;;;4965047;28;20284;-83
2022/12/13 08:48:53;;;;;;;36.23;19.73;;;-3.70;99.90;;;;;;4971179;28;20259;-83
2022/12/13 08:51:22;;;;;;;36.37;21.20;;;-3.70;99.90;;;;;;4963514;28;20314;-82
2022/12/13 08:53:49;;;;;;;34.53;19.33;;;-3.70;99.90;;;;;;4963641;28;20605;-83
2022/12/13 08:56:17;;;;;;;31.83;18.93;;;-3.70;99.90;;;;;;4973629;28;20221;-83
2022/12/13 08:58:45;;;;;;;37.90;21.40;;;-3.60;99.90;;;;;;4975921;28;20211;-83
2022/12/13 09:01:13;;;;;;;37.40;20.63;;;-3.60;99.90;;;;;;4968039;28;20288;-83
2022/12/13 09:03:40;;;;;;;37.00;19.40;;;-3.60;99.90;;;;;;4966000;28;20209;-83
2022/12/13 09:06:09;;;;;;;35.77;20.47;;;-3.60;99.90;;;;;;4970561;28;20547;-82
2022/12/13 09:08:36;;;;;;;34.90;19.43;;;-3.60;99.90;;;;;;4965128;28;20237;-82
2022/12/13 09:11:04;;;;;;;36.70;20.47;;;-3.50;99.90;;;;;;4965333;28;20200;-83
2022/12/13 09:13:33;;;;;;;34.87;19.73;;;-3.50;99.90;;;;;;4960364;28;20201;-82
2022/12/13 09:16:03;;;;;;;34.67;21.73;;;-3.50;99.90;;;;;;4964887;28;20224;-81
2022/12/13 09:18:31;;;;;;;30.97;18.93;;;-3.40;99.90;;;;;;4964108;28;20212;-82
2022/12/13 09:20:58;;;;;;;33.77;19.17;;;-3.40;99.90;;;;;;4965385;28;20714;-82
2022/12/13 09:23:25;;;;;;;33.77;19.97;;;-3.40;99.90;;;;;;4967298;28;20343;-82
2022/12/13 09:25:56;;;;;;;38.80;20.03;;;-3.40;99.90;;;;;;4973288;28;20228;-84
2022/12/13 09:28:23;;;;;;;38.67;20.07;;;-3.30;99.90;;;;;;4968855;28;20212;-84
2022/12/13 09:30:50;;;;;;;31.97;19.93;;;-3.30;99.90;;;;;;4961874;28;20284;-82
2022/12/13 09:33:17;;;;;;;38.37;20.63;;;-3.20;99.90;;;;;;4959223;28;20605;-82
2022/12/13 09:35:45;;;;;;;36.50;20.30;;;-3.10;99.90;;;;;;4962286;28;20262;-84
2022/12/13 09:38:12;;;;;;;36.23;21.83;;;-3.00;99.90;;;;;;4961316;28;20296;-81
2022/12/13 09:40:40;;;;;;;37.23;21.60;;;-2.90;99.90;;;;;;4956236;28;20289;-81
2022/12/13 09:43:12;;;;;;;35.67;21.13;;;-2.70;99.90;;;;;;4974774;28;20299;-81
2022/12/13 09:45:43;;;;;;;38.97;22.03;;;-2.60;99.90;;;;;;4974883;28;20886;-81
2022/12/13 09:48:15;;;;;;;34.03;20.23;;;-2.50;99.90;;;;;;4974695;28;20208;-82
2022/12/13 09:50:42;;;;;;;38.10;20.63;;;-2.50;99.90;;;;;;4974881;28;20856;-83
2022/12/13 09:53:16;;;;;;;38.27;22.47;;;-2.40;99.90;;;;;;4975474;28;20232;-83
2022/12/13 09:55:45;;;;;;;37.90;21.53;;;-2.40;99.90;;;;;;4974851;28;20232;-82
2022/12/13 09:58:18;;;;;;;39.83;22.60;;;-2.30;99.90;;;;;;4973776;28;20272;-83
2022/12/13 10:00:48;;;;;;;39.93;22.97;;;-2.30;99.90;;;;;;4962898;28;20231;-82
2022/12/13 10:03:17;;;;;;;39.20;22.63;;;-2.20;99.90;;;;;;4974756;28;20208;-81
2022/12/13 10:05:45;;;;;;;41.57;23.33;;;-2.20;99.90;;;;;;4978876;28;20200;-81
2022/12/13 10:08:16;;;;;;;38.50;22.30;;;-2.20;99.90;;;;;;4993811;28;20216;-81
2022/12/13 10:10:43;;;;;;;37.10;22.23;;;-2.10;99.90;;;;;;4992977;28;20200;-81
2022/12/13 10:13:17;;;;;;;40.83;23.33;;;-2.10;99.90;;;;;;4993063;28;20206;-81
2022/12/13 10:15:50;;;;;;;44.17;24.53;;;-2.00;99.90;;;;;;4992192;28;20211;-82
2022/12/13 10:18:24;;;;;;;42.60;24.23;;;-2.00;99.90;;;;;;4993298;28;20200;-80
2022/12/13 10:20:53;;;;;;;35.97;22.00;;;-1.90;99.90;;;;;;4991691;28;20221;-81
2022/12/13 10:23:21;;;;;;;38.43;22.73;;;-1.90;99.90;;;;;;4993172;28;20302;-80
2022/12/13 10:25:53;;;;;;;35.70;22.33;;;-1.80;99.90;;;;;;4991644;28;20262;-80
2022/12/13 10:28:27;;;;;;;36.10;22.87;;;-1.80;99.90;;;;;;4992877;28;20601;-80
2022/12/13 10:30:54;;;;;;;39.73;22.27;;;-1.90;99.90;;;;;;4975111;28;20295;-81
2022/12/13 10:33:27;;;;;;;44.67;24.37;;;-1.80;99.90;;;;;;4973289;28;20219;-81
2022/12/13 10:36:30;;;;;;;40.77;23.70;;;-1.80;99.90;;;;;;4972656;28;20247;-81
2022/12/13 10:38:58;;;;;;;38.07;23.97;;;-1.70;99.90;;;;;;4963283;28;20283;-80
2022/12/13 10:41:29;;;;;;;38.60;23.87;;;-1.60;99.90;;;;;;4970065;28;20205;-81
2022/12/13 10:44:09;;;;;;;39.83;23.20;;;-1.60;99.90;;;;;;4968703;28;20287;-81
2022/12/13 10:46:36;;;;;;;43.00;24.07;;;-1.50;99.90;;;;;;4975736;28;20200;-82
2022/12/13 10:49:04;;;;;;;45.93;25.23;;;-1.50;99.90;;;;;;4977418;28;20208;-82
2022/12/13 10:51:38;;;;;;;39.80;24.20;;;-1.50;99.90;;;;;;4977607;28;20234;-81
2022/12/13 10:54:17;;;;;;;38.93;23.50;;;-1.50;99.90;;;;;;4979037;28;20502;-81
2022/12/13 10:56:47;;;;;;;38.33;23.07;;;-1.40;99.90;;;;;;4973057;28;20224;-80
2022/12/13 10:59:26;;;;;;;34.77;21.20;;;-1.40;99.90;;;;;;4971439;28;20228;-80
2022/12/13 11:01:54;;;;;;;36.30;21.37;;;-1.40;99.90;;;;;;4976463;28;20215;-80
2022/12/13 11:04:26;;;;;;;36.40;22.40;;;-1.40;99.90;;;;;;4976640;28;20215;-81
2022/12/13 11:06:53;;;;;;;42.10;23.90;;;-1.40;99.90;;;;;;4980111;28;20626;-81
2022/12/13 11:09:28;;;;;;;40.17;23.27;;;-1.40;99.90;;;;;;4996078;28;20246;-80
2022/12/13 11:11:58;;;;;;;43.40;23.37;;;-1.40;99.90;;;;;;4957951;28;20316;-81
2022/12/13 11:14:27;;;;;;;41.83;24.57;;;-1.30;99.90;;;;;;4973138;28;20218;-82
2022/12/13 11:16:58;;;;;;;42.53;25.03;;;-1.30;99.90;;;;;;4970255;28;20532;-80
2022/12/13 11:19:29;;;;;;;41.43;25.37;;;-1.30;99.90;;;;;;4977104;28;20209;-81
2022/12/13 11:21:58;;;;;;;45.97;25.67;;;-1.30;99.90;;;;;;4956983;28;20213;-81
2022/12/13 11:24:30;;;;;;;42.87;24.47;;;-1.20;99.90;;;;;;4959571;28;20256;-80
2022/12/13 11:27:01;;;;;;;40.90;26.10;;;-1.20;99.90;;;;;;4967852;28;20288;-80
2022/12/13 11:29:40;;;;;;;42.57;25.27;;;-1.10;99.90;;;;;;4976444;28;20223;-81
2022/12/13 11:32:15;;;;;;;38.67;23.50;;;-1.10;99.90;;;;;;4979505;28;20261;-80
2022/12/13 11:34:52;;;;;;;40.97;23.80;;;-1.00;99.90;;;;;;4994546;28;20235;-81
2022/12/13 11:37:28;;;;;;;43.83;26.03;;;-1.00;99.90;;;;;;4981174;28;20227;-81
2022/12/13 11:40:02;;;;;;;43.87;26.20;;;-1.00;99.90;;;;;;4988863;28;20212;-82
2022/12/13 11:42:35;;;;;;;42.93;24.80;;;-0.90;99.90;;;;;;4976416;28;20303;-80
2022/12/13 11:45:12;;;;;;;40.00;23.17;;;-0.90;99.90;;;;;;4975752;28;20429;-80
2022/12/13 11:47:44;;;;;;;40.10;23.67;;;-0.90;99.90;;;;;;4976175;28;20205;-80
2022/12/13 11:50:17;;;;;;;39.50;23.87;;;-0.90;99.90;;;;;;4989509;28;20606;-81
2022/12/13 11:52:50;;;;;;;38.63;24.33;;;-0.90;99.90;;;;;;4995402;28;20286;-82
2022/12/13 11:55:24;;;;;;;40.53;25.03;;;-0.90;99.90;;;;;;4981502;28;20204;-81
2022/12/13 11:57:57;;;;;;;45.97;27.53;;;-0.90;99.90;;;;;;4976259;28;20315;-81
2022/12/13 12:00:34;;;;;;;43.43;26.00;;;-0.90;99.90;;;;;;4994959;28;20207;-81
2022/12/13 12:03:16;;;;;;;41.73;25.77;;;-0.80;99.90;;;;;;4995420;28;20665;-84
2022/12/13 12:05:48;;;;;;;43.83;24.80;;;-0.80;99.90;;;;;;4993558;28;20760;-83
2022/12/13 12:08:21;;;;;;;40.50;24.60;;;-0.80;99.90;;;;;;4996145;28;20215;-81
2022/12/13 12:10:58;;;;;;;40.83;25.53;;;-0.80;99.90;;;;;;4975284;28;20220;-83
2022/12/13 12:13:32;;;;;;;45.23;25.57;;;-0.80;99.90;;;;;;4976276;28;20288;-84
2022/12/13 12:16:06;;;;;;;45.60;26.53;;;-0.70;99.90;;;;;;4976030;28;20279;-83
2022/12/13 12:18:33;;;;;;;42.33;25.77;;;-0.70;99.90;;;;;;4958001;29;20201;-83
2022/12/13 12:21:12;;;;;;;40.20;25.17;;;-0.70;99.90;;;;;;4958191;29;20300;-85
2022/12/13 12:23:54;;;;;;;44.23;26.73;;;-0.60;99.90;;;;;;4957316;29;20253;-83
2022/12/13 12:26:30;;;;;;;47.57;26.97;;;-0.60;99.90;;;;;;4990190;28;20196;-83
2022/12/13 12:29:16;;;;;;;45.67;26.27;;;-0.50;99.90;;;;;;4996141;28;20202;-82
2022/12/13 12:31:49;;;;;;;44.70;26.33;;;-0.50;99.90;;;;;;4991788;28;20298;-83
2022/12/13 12:34:25;;;;;;;42.87;25.80;;;-0.50;99.90;;;;;;4973793;28;20237;-83
2022/12/13 12:37:05;;;;;;;41.40;25.53;;;-0.50;99.90;;;;;;4975029;28;20217;-83
2022/12/13 12:39:42;;;;;;;36.80;23.70;;;-0.40;99.90;;;;;;4976649;28;20196;-83
2022/12/13 12:42:46;;;;;;;35.77;23.33;;;-0.40;99.90;;;;;;4976157;28;20211;-81
2022/12/13 12:45:41;;;;;;;38.97;24.37;;;-0.40;99.90;;;;;;4950702;28;20219;-81
2022/12/13 12:48:26;;;;;;;39.00;22.80;;;-0.40;99.90;;;;;;4994329;28;20202;-82